Amity, Arkansas
Current Conditions -  °F | °C
As of 12:53 AM on Monday 24 Nov 2014 (Local Time) from KMWT Reporting Station
Overcast Overcast  
Wind Chill: 10°   Ceiling: 2200
Heat Index: 10°   Visibility: 10mi
Dew Point:   Wind: 8mph
Humidity: 71%   Direction: 320°NW
Pressure: 29.57"   Gusts: 23mph
Location:  34.26°N, 93.46°W
Report Text: KMWT 240653Z AUTO 32007G20KT 290V360 10SM OVC022 10/05 A2957 RMK AO2 SLP013 T01000050
Loading
Personal Weather Stations






























Interactive Weather Map New forecast layout! Learn more

10-Day Weather Forecast

Advertisements
Track Severe Weather on mobile